Time;durP1;ratioP1;P1;durP2;ratioP2;P2;SDS_P1;SDS_P2;PMS_P1;PMS_P2;Temp;Humidity;BMP_temperature;BMP_pressure;BME280_temperature;BME280_humidity;BME280_pressure;Samples;Min_cycle;Max_cycle;Signal;HPM_P1;HPM_P2
2021/06/27 00:00:22;;;;;;;23.08;10.02;;;17.90;99.90;;;;;;5002750;28;20057;-74
2021/06/27 00:02:48;;;;;;;17.08;8.88;;;17.70;99.90;;;;;;5004601;28;20026;-71
2021/06/27 00:05:16;;;;;;;16.10;7.97;;;17.60;99.90;;;;;;5004291;28;20109;-74
2021/06/27 00:07:43;;;;;;;13.95;8.45;;;17.70;99.90;;;;;;5005694;28;20463;-73
2021/06/27 00:10:12;;;;;;;17.02;7.43;;;17.60;99.90;;;;;;5008310;28;20030;-72
2021/06/27 00:12:39;;;;;;;19.55;9.48;;;17.60;99.90;;;;;;5008284;28;20034;-72
2021/06/27 00:15:21;;;;;;;23.13;10.43;;;17.50;99.90;;;;;;5007660;28;20058;-71
2021/06/27 00:17:47;;;;;;;17.63;9.25;;;17.50;99.90;;;;;;5006825;28;20038;-71
2021/06/27 00:20:18;;;;;;;15.38;7.85;;;17.50;99.90;;;;;;5022872;28;20077;-70
2021/06/27 00:22:44;;;;;;;23.70;8.70;;;17.40;99.90;;;;;;5008146;28;20034;-71
2021/06/27 00:25:13;;;;;;;19.48;9.70;;;17.40;99.90;;;;;;5008008;28;20030;-72
2021/06/27 00:27:40;;;;;;;16.65;9.05;;;17.40;99.90;;;;;;5007666;28;20041;-72
2021/06/27 00:30:10;;;;;;;20.35;9.90;;;17.40;99.90;;;;;;5007650;28;20386;-71
2021/06/27 00:32:38;;;;;;;18.85;8.95;;;17.30;99.90;;;;;;5007741;28;20545;-72
2021/06/27 00:35:10;;;;;;;22.02;10.00;;;17.30;99.90;;;;;;5007418;28;20061;-71
2021/06/27 00:37:36;;;;;;;14.38;8.02;;;17.30;99.90;;;;;;5006569;28;20042;-71
2021/06/27 00:40:08;;;;;;;16.60;8.25;;;17.30;99.90;;;;;;5006392;28;20030;-71
2021/06/27 00:42:34;;;;;;;23.80;8.75;;;17.30;99.90;;;;;;5007467;28;20057;-71
2021/06/27 00:45:00;;;;;;;13.20;8.00;;;17.30;99.90;;;;;;5007673;28;20031;-72
2021/06/27 00:47:31;;;;;;;24.90;9.57;;;17.30;99.90;;;;;;5007569;28;20065;-70
2021/06/27 00:49:57;;;;;;;17.25;8.52;;;17.30;99.90;;;;;;5007270;28;20058;-72
2021/06/27 00:52:23;;;;;;;14.73;6.55;;;17.30;99.90;;;;;;5007515;28;20030;-70
2021/06/27 00:54:48;;;;;;;18.20;8.63;;;17.30;99.90;;;;;;5007681;28;20033;-72
2021/06/27 00:57:14;;;;;;;17.10;8.23;;;17.30;99.90;;;;;;5006903;28;20073;-72
2021/06/27 00:59:40;;;;;;;15.02;8.05;;;17.20;99.90;;;;;;5006785;28;20030;-72
2021/06/27 01:02:06;;;;;;;18.50;7.65;;;17.20;99.90;;;;;;5006071;28;20027;-72
2021/06/27 01:04:32;;;;;;;13.52;7.35;;;17.20;99.90;;;;;;5007132;28;20031;-71
2021/06/27 01:06:57;;;;;;;16.80;8.20;;;17.20;99.90;;;;;;5005987;28;20093;-73
2021/06/27 01:09:23;;;;;;;21.50;9.50;;;17.10;99.90;;;;;;5006696;28;20034;-73
2021/06/27 01:11:49;;;;;;;22.65;7.10;;;17.10;99.90;;;;;;5021684;28;20044;-72
2021/06/27 01:14:15;;;;;;;18.08;8.82;;;17.20;99.90;;;;;;5006796;28;20057;-72
2021/06/27 01:16:41;;;;;;;17.60;8.73;;;17.10;99.90;;;;;;5006855;28;20026;-71
2021/06/27 01:19:07;;;;;;;18.23;8.63;;;17.10;99.90;;;;;;5006321;28;20038;-71
2021/06/27 01:21:36;;;;;;;22.65;9.50;;;17.10;99.90;;;;;;5022134;28;20049;-72
2021/06/27 01:24:03;;;;;;;20.90;8.60;;;17.00;99.90;;;;;;5021518;28;20097;-72
2021/06/27 01:26:28;;;;;;;14.27;7.40;;;17.00;99.90;;;;;;5021410;28;20518;-71
2021/06/27 01:28:54;;;;;;;13.23;6.93;;;17.00;99.90;;;;;;5006816;28;20033;-73
2021/06/27 01:31:20;;;;;;;17.70;7.63;;;17.00;99.90;;;;;;5021247;28;20038;-71
2021/06/27 01:33:48;;;;;;;16.27;7.43;;;16.90;99.90;;;;;;5006642;28;20030;-73
2021/06/27 01:36:14;;;;;;;14.48;7.95;;;16.90;99.90;;;;;;5021724;28;20030;-72
2021/06/27 01:38:40;;;;;;;18.55;8.57;;;16.90;99.90;;;;;;5006258;28;20438;-72
2021/06/27 01:41:06;;;;;;;19.00;7.30;;;16.90;99.90;;;;;;5022764;28;20030;-71
2021/06/27 01:43:32;;;;;;;17.60;8.00;;;16.90;99.90;;;;;;5006404;28;20072;-74
2021/06/27 01:46:02;;;;;;;15.63;7.68;;;17.00;99.90;;;;;;5021154;28;20034;-72
2021/06/27 01:48:30;;;;;;;16.77;8.50;;;16.80;99.90;;;;;;5006476;28;20181;-73
2021/06/27 01:50:57;;;;;;;18.92;8.10;;;16.80;99.90;;;;;;5005847;28;20608;-72
2021/06/27 01:53:28;;;;;;;13.93;6.72;;;16.80;99.90;;;;;;5006206;28;20076;-73
2021/06/27 01:56:07;;;;;;;15.23;7.07;;;16.70;99.90;;;;;;5006173;28;20026;-74
2021/06/27 01:58:39;;;;;;;17.02;7.20;;;16.80;99.90;;;;;;5021145;28;20558;-72
2021/06/27 02:01:23;;;;;;;18.33;7.15;;;16.60;99.90;;;;;;5006245;28;20049;-73
2021/06/27 02:03:50;;;;;;;19.98;8.73;;;16.70;99.90;;;;;;5006355;28;20026;-71
2021/06/27 02:06:17;;;;;;;22.65;7.93;;;16.70;99.90;;;;;;5005744;28;20022;-71
2021/06/27 02:08:43;;;;;;;17.35;7.72;;;16.70;99.90;;;;;;5005809;28;20509;-71
2021/06/27 02:11:11;;;;;;;23.67;9.48;;;16.70;99.90;;;;;;5006232;28;20023;-70
2021/06/27 02:13:37;;;;;;;14.82;7.63;;;16.60;99.90;;;;;;5020488;28;20027;-72
2021/06/27 02:16:04;;;;;;;13.85;7.35;;;16.70;99.90;;;;;;5006021;28;20047;-71
2021/06/27 02:18:35;;;;;;;15.43;7.82;;;16.60;99.90;;;;;;5005639;28;20072;-71
2021/06/27 02:21:09;;;;;;;19.42;8.05;;;16.60;99.90;;;;;;5005548;28;20050;-75
2021/06/27 02:23:35;;;;;;;19.98;7.50;;;16.60;99.90;;;;;;5020930;28;20050;-72
2021/06/27 02:26:02;;;;;;;16.42;7.53;;;16.60;99.90;;;;;;5005850;28;20034;-71
2021/06/27 02:28:28;;;;;;;21.65;7.80;;;16.50;99.90;;;;;;5005392;28;20018;-71
2021/06/27 02:30:55;;;;;;;20.50;8.23;;;16.50;99.90;;;;;;5003360;28;20029;-71
2021/06/27 02:33:21;;;;;;;20.23;8.63;;;16.50;99.90;;;;;;5005224;28;20922;-71
2021/06/27 02:35:47;;;;;;;16.00;7.13;;;16.60;99.90;;;;;;5005600;28;20030;-73
2021/06/27 02:38:13;;;;;;;13.13;6.47;;;16.50;99.90;;;;;;5020646;28;20049;-72
2021/06/27 02:40:40;;;;;;;15.05;7.38;;;16.40;99.90;;;;;;5005364;28;20036;-73
2021/06/27 02:43:06;;;;;;;18.92;7.45;;;16.50;99.90;;;;;;5005615;28;20054;-72
2021/06/27 02:45:32;;;;;;;15.82;8.18;;;16.40;99.90;;;;;;5005473;28;20065;-73
2021/06/27 02:47:58;;;;;;;16.17;7.85;;;16.40;99.90;;;;;;5004964;28;20027;-71
2021/06/27 02:50:24;;;;;;;15.68;8.27;;;16.40;99.90;;;;;;5020130;28;20064;-71
2021/06/27 02:52:50;;;;;;;18.60;7.68;;;16.40;99.90;;;;;;5005260;28;20026;-71
2021/06/27 02:55:15;;;;;;;21.05;7.43;;;16.30;99.90;;;;;;5004844;28;20069;-71
2021/06/27 02:57:42;;;;;;;12.07;6.70;;;16.30;99.90;;;;;;5005155;28;20077;-73
2021/06/27 03:00:14;;;;;;;16.95;7.68;;;16.30;99.90;;;;;;5005049;28;20026;-72
2021/06/27 03:02:40;;;;;;;12.95;6.57;;;16.30;99.90;;;;;;5005647;28;20034;-72
2021/06/27 03:05:08;;;;;;;15.02;6.30;;;16.20;99.90;;;;;;5005372;28;20030;-74
2021/06/27 03:07:34;;;;;;;13.70;6.72;;;16.30;99.90;;;;;;5020073;28;20114;-72
2021/06/27 03:09:59;;;;;;;17.90;8.13;;;16.30;99.90;;;;;;5020063;28;20414;-71
2021/06/27 03:12:25;;;;;;;18.27;8.45;;;16.20;99.90;;;;;;5005074;28;20067;-72
2021/06/27 03:14:50;;;;;;;23.45;7.82;;;16.30;99.90;;;;;;5004418;28;20057;-74
2021/06/27 03:17:16;;;;;;;22.83;7.53;;;16.20;99.90;;;;;;5004833;28;20029;-71
2021/06/27 03:19:42;;;;;;;17.38;8.55;;;16.20;99.90;;;;;;5020046;28;20033;-72
2021/06/27 03:22:08;;;;;;;16.73;7.50;;;16.20;99.90;;;;;;5004776;28;20026;-72
2021/06/27 03:24:33;;;;;;;18.38;7.88;;;16.20;99.90;;;;;;5020013;28;20113;-72
2021/06/27 03:26:59;;;;;;;27.63;8.65;;;16.10;99.90;;;;;;5004967;28;20652;-72
2021/06/27 03:29:25;;;;;;;16.45;7.80;;;16.20;99.90;;;;;;5004655;28;20112;-71
2021/06/27 03:31:50;;;;;;;27.60;8.55;;;16.20;99.90;;;;;;5004948;28;20082;-70
2021/06/27 03:34:16;;;;;;;14.23;7.45;;;16.20;99.90;;;;;;5004807;28;20035;-71
2021/06/27 03:36:41;;;;;;;13.18;6.97;;;16.20;99.90;;;;;;5004769;28;20487;-73
2021/06/27 03:39:11;;;;;;;15.20;8.10;;;16.20;99.90;;;;;;5004737;28;20042;-71
2021/06/27 03:41:46;;;;;;;18.13;6.93;;;16.20;99.90;;;;;;5005886;28;20026;-74
2021/06/27 03:44:13;;;;;;;15.30;7.60;;;16.20;99.90;;;;;;5008801;28;20053;-73
2021/06/27 03:46:39;;;;;;;18.95;8.35;;;16.20;99.90;;;;;;5009016;28;20033;-71
2021/06/27 03:49:05;;;;;;;17.65;8.07;;;16.10;99.90;;;;;;5008369;28;20077;-71
2021/06/27 03:51:31;;;;;;;20.45;8.23;;;16.20;99.90;;;;;;5009289;28;20034;-72
2021/06/27 03:53:56;;;;;;;15.93;7.55;;;16.20;99.90;;;;;;5008685;28;20030;-72
2021/06/27 03:56:22;;;;;;;19.98;7.88;;;16.20;99.90;;;;;;5008218;28;20037;-72
2021/06/27 03:58:48;;;;;;;13.52;7.20;;;16.20;99.90;;;;;;5008261;28;20069;-71
2021/06/27 04:01:15;;;;;;;16.40;7.63;;;16.20;99.90;;;;;;5008400;28;20023;-72
2021/06/27 04:03:41;;;;;;;17.00;6.80;;;16.30;99.90;;;;;;5008088;28;20030;-74
2021/06/27 04:06:07;;;;;;;19.58;8.50;;;16.30;99.90;;;;;;5023582;28;20129;-72
2021/06/27 04:08:33;;;;;;;15.32;6.60;;;16.30;99.90;;;;;;5023117;28;20030;-72
2021/06/27 04:10:59;;;;;;;17.13;7.32;;;16.40;99.90;;;;;;5008241;28;20030;-73
2021/06/27 04:13:32;;;;;;;15.60;6.45;;;16.40;99.90;;;;;;5008168;28;20030;-72
2021/06/27 04:15:59;;;;;;;15.35;6.88;;;16.30;99.90;;;;;;5022550;28;20523;-72
2021/06/27 04:18:25;;;;;;;13.20;6.03;;;16.40;99.90;;;;;;5007827;28;20070;-72
2021/06/27 04:20:52;;;;;;;24.00;9.68;;;16.40;99.90;;;;;;5023151;28;20035;-73
2021/06/27 04:23:18;;;;;;;13.88;7.38;;;16.50;99.90;;;;;;5007794;28;20379;-72
2021/06/27 04:25:44;;;;;;;21.65;9.20;;;16.50;99.90;;;;;;5007977;28;20030;-73
2021/06/27 04:28:10;;;;;;;16.02;8.23;;;16.50;99.90;;;;;;5007863;28;20030;-73
2021/06/27 04:30:37;;;;;;;21.67;8.40;;;16.40;99.90;;;;;;5022760;28;20475;-74
2021/06/27 04:33:05;;;;;;;13.80;6.85;;;16.50;99.90;;;;;;5008100;28;20030;-72
2021/06/27 04:35:34;;;;;;;15.80;7.13;;;16.50;99.90;;;;;;5007264;28;20117;-72
2021/06/27 04:38:00;;;;;;;15.07;7.38;;;16.60;99.90;;;;;;5005984;28;20053;-72
2021/06/27 04:40:26;;;;;;;13.27;7.28;;;16.60;99.90;;;;;;5007637;28;20037;-72
2021/06/27 04:42:51;;;;;;;16.20;8.20;;;16.60;99.90;;;;;;5007549;28;20022;-73
2021/06/27 04:45:17;;;;;;;24.88;7.85;;;16.60;99.90;;;;;;5022067;28;20027;-70
2021/06/27 04:47:43;;;;;;;17.83;7.78;;;16.60;99.90;;;;;;5007752;28;20034;-73
2021/06/27 04:50:09;;;;;;;14.88;6.72;;;16.70;99.90;;;;;;5007721;28;20046;-72
2021/06/27 04:52:35;;;;;;;22.52;8.23;;;16.70;99.90;;;;;;5006905;28;20061;-72
2021/06/27 04:55:02;;;;;;;19.42;7.40;;;16.70;99.90;;;;;;5007210;28;20030;-73
2021/06/27 04:57:28;;;;;;;19.77;8.75;;;16.70;99.90;;;;;;5007072;28;20038;-72
2021/06/27 04:59:54;;;;;;;14.20;6.20;;;16.70;99.90;;;;;;5007292;28;20030;-70
2021/06/27 05:02:19;;;;;;;14.05;7.22;;;16.80;99.90;;;;;;5007068;28;20022;-71
2021/06/27 05:04:45;;;;;;;19.33;7.47;;;16.80;99.90;;;;;;5007014;28;20422;-73
2021/06/27 05:07:11;;;;;;;19.15;7.65;;;16.90;99.90;;;;;;5007221;28;20034;-73
2021/06/27 05:09:37;;;;;;;15.80;6.75;;;16.90;99.90;;;;;;5007415;28;20038;-72
2021/06/27 05:12:03;;;;;;;15.25;7.35;;;17.00;99.90;;;;;;5007096;28;20026;-72
2021/06/27 05:14:28;;;;;;;16.63;7.07;;;17.00;99.90;;;;;;5006628;28;20054;-72
2021/06/27 05:16:54;;;;;;;12.20;7.13;;;17.10;99.90;;;;;;5005815;28;20033;-72
2021/06/27 05:19:19;;;;;;;18.77;7.55;;;17.10;99.90;;;;;;5005322;28;20450;-72
2021/06/27 05:21:46;;;;;;;21.38;6.90;;;17.00;99.90;;;;;;5006910;28;20031;-73
2021/06/27 05:24:11;;;;;;;15.43;7.60;;;17.10;99.90;;;;;;5007051;28;20018;-73
2021/06/27 05:26:37;;;;;;;12.50;6.25;;;17.10;99.90;;;;;;5006704;28;20089;-73
2021/06/27 05:29:04;;;;;;;19.17;8.43;;;17.20;99.90;;;;;;5006913;28;20109;-72
2021/06/27 05:31:33;;;;;;;12.77;6.40;;;17.30;99.90;;;;;;5006907;28;20045;-73
2021/06/27 05:33:59;;;;;;;16.13;7.47;;;17.30;99.90;;;;;;5006626;28;20014;-74
2021/06/27 05:36:24;;;;;;;17.33;7.28;;;17.30;99.90;;;;;;5006394;28;20086;-73
2021/06/27 05:38:50;;;;;;;18.33;7.75;;;17.50;99.90;;;;;;5006624;28;20061;-73
2021/06/27 05:41:16;;;;;;;14.68;7.65;;;17.60;99.90;;;;;;5006162;28;20058;-73
2021/06/27 05:43:41;;;;;;;15.13;7.50;;;17.70;99.90;;;;;;5021516;28;20077;-72
2021/06/27 05:46:07;;;;;;;15.93;7.65;;;17.70;99.90;;;;;;5006528;28;20060;-73
2021/06/27 05:48:33;;;;;;;14.82;8.30;;;17.80;99.90;;;;;;5005070;28;20113;-73
2021/06/27 05:50:58;;;;;;;12.98;5.80;;;17.80;99.90;;;;;;5006555;28;20113;-75
2021/06/27 05:53:24;;;;;;;13.85;6.50;;;17.90;99.90;;;;;;5005109;28;20113;-72
2021/06/27 05:56:08;;;;;;;14.60;6.55;;;17.90;99.90;;;;;;5006026;28;20114;-71
2021/06/27 05:58:35;;;;;;;19.37;7.57;;;17.90;99.90;;;;;;5006394;28;20043;-71
2021/06/27 06:01:00;;;;;;;18.58;7.60;;;17.90;99.90;;;;;;5005049;28;20270;-71
2021/06/27 06:03:26;;;;;;;25.65;7.32;;;18.00;99.90;;;;;;5004477;28;20030;-72
2021/06/27 06:05:51;;;;;;;17.98;6.53;;;18.00;99.90;;;;;;5021164;28;20053;-70
2021/06/27 06:08:17;;;;;;;17.63;7.25;;;18.00;99.90;;;;;;5006059;28;20026;-72
2021/06/27 06:10:42;;;;;;;14.13;6.80;;;18.00;99.90;;;;;;5011159;28;20030;-76
2021/06/27 06:13:08;;;;;;;11.88;6.10;;;18.10;99.90;;;;;;5024391;28;20022;-75
2021/06/27 06:15:34;;;;;;;9.82;5.93;;;18.10;99.90;;;;;;5017945;28;20042;-74
2021/06/27 06:17:59;;;;;;;15.73;6.10;;;18.10;99.90;;;;;;5024026;28;20041;-73
2021/06/27 06:20:25;;;;;;;15.40;6.72;;;18.20;99.90;;;;;;5025495;28;20395;-74
2021/06/27 06:22:50;;;;;;;12.93;6.90;;;18.20;99.90;;;;;;5025316;28;20029;-75
2021/06/27 06:25:16;;;;;;;15.30;6.18;;;18.30;99.90;;;;;;5025297;28;20099;-72
2021/06/27 06:27:41;;;;;;;15.23;7.60;;;18.30;99.90;;;;;;5025508;28;20029;-75
2021/06/27 06:30:07;;;;;;;11.50;6.32;;;18.20;99.90;;;;;;5025036;28;20026;-75
2021/06/27 06:32:33;;;;;;;17.90;6.90;;;18.40;99.90;;;;;;5025353;28;20105;-72
2021/06/27 06:34:59;;;;;;;19.67;7.35;;;18.40;99.90;;;;;;5025355;28;21298;-74
2021/06/27 06:37:24;;;;;;;19.75;6.93;;;18.50;99.90;;;;;;5023329;28;20022;-75
2021/06/27 06:39:50;;;;;;;13.63;7.30;;;18.50;99.90;;;;;;5023799;28;20052;-74
2021/06/27 06:42:16;;;;;;;12.77;7.53;;;18.50;99.90;;;;;;5023945;28;20121;-74
2021/06/27 06:44:41;;;;;;;15.15;6.93;;;18.60;99.90;;;;;;5024574;28;20037;-76
2021/06/27 06:47:07;;;;;;;13.70;6.85;;;18.60;99.90;;;;;;5023870;28;20030;-76
2021/06/27 06:49:33;;;;;;;12.23;6.22;;;18.70;99.90;;;;;;5024923;28;20042;-75
2021/06/27 06:51:59;;;;;;;18.63;6.65;;;18.70;99.90;;;;;;5023636;28;20072;-73
2021/06/27 06:54:24;;;;;;;12.52;6.32;;;18.80;99.90;;;;;;5019839;28;20086;-74
2021/06/27 06:56:50;;;;;;;20.80;8.30;;;18.90;99.90;;;;;;5005220;28;20101;-75
2021/06/27 06:59:15;;;;;;;14.05;6.38;;;18.90;99.90;;;;;;5006237;28;20089;-74
2021/06/27 07:01:41;;;;;;;14.68;7.50;;;19.00;99.90;;;;;;5024852;28;20022;-74
2021/06/27 07:04:06;;;;;;;14.15;5.85;;;19.10;99.90;;;;;;5023437;28;20026;-75
2021/06/27 07:06:32;;;;;;;18.20;6.50;;;19.20;99.90;;;;;;5024531;28;20044;-75
2021/06/27 07:08:58;;;;;;;7.70;4.82;;;19.30;99.90;;;;;;5023024;28;20077;-74
2021/06/27 07:11:23;;;;;;;9.63;5.20;;;19.20;99.90;;;;;;5024768;28;20037;-73
2021/06/27 07:13:49;;;;;;;11.82;6.00;;;19.30;99.90;;;;;;5016914;28;20023;-73
2021/06/27 07:16:14;;;;;;;8.13;5.00;;;19.30;99.90;;;;;;5006848;28;20026;-74
2021/06/27 07:18:40;;;;;;;12.93;6.10;;;19.30;99.90;;;;;;5011679;28;20546;-73
2021/06/27 07:21:07;;;;;;;15.00;6.45;;;19.40;99.90;;;;;;5026454;28;20034;-73
2021/06/27 07:23:32;;;;;;;8.63;5.68;;;19.40;99.90;;;;;;5011700;28;20026;-75
2021/06/27 07:25:58;;;;;;;10.02;5.07;;;19.40;99.90;;;;;;5012318;28;20113;-74
2021/06/27 07:28:24;;;;;;;9.13;5.85;;;19.50;99.90;;;;;;5030979;28;20041;-75
2021/06/27 07:30:50;;;;;;;8.57;4.80;;;19.60;99.90;;;;;;5029707;28;20021;-74
2021/06/27 07:33:17;;;;;;;11.80;5.75;;;19.70;99.90;;;;;;5030638;28;20085;-73
2021/06/27 07:35:43;;;;;;;10.82;4.80;;;19.70;99.90;;;;;;5030229;28;20497;-71
2021/06/27 07:38:08;;;;;;;9.73;4.82;;;19.80;99.90;;;;;;5031271;28;20049;-75
2021/06/27 07:40:34;;;;;;;11.55;4.78;;;19.80;99.90;;;;;;5030588;28;20033;-74
2021/06/27 07:43:00;;;;;;;9.45;5.38;;;19.90;99.90;;;;;;5031099;28;20089;-73
2021/06/27 07:45:25;;;;;;;5.78;3.97;;;20.00;99.90;;;;;;5030845;28;20026;-71
2021/06/27 07:47:51;;;;;;;8.23;4.63;;;20.10;99.90;;;;;;5030773;28;20029;-73
2021/06/27 07:50:16;;;;;;;10.15;5.40;;;20.20;99.90;;;;;;5021309;28;20105;-73
2021/06/27 07:52:42;;;;;;;7.63;4.15;;;20.30;99.90;;;;;;5026416;28;20050;-74
2021/06/27 07:55:08;;;;;;;10.32;4.82;;;20.40;99.90;;;;;;5011140;28;20026;-72
2021/06/27 07:57:34;;;;;;;8.93;4.13;;;20.50;99.90;;;;;;5011302;28;20597;-74
2021/06/27 08:00:02;;;;;;;6.40;4.35;;;20.60;99.90;;;;;;5025613;28;20098;-76
2021/06/27 08:02:27;;;;;;;8.50;4.03;;;20.70;99.90;;;;;;5010884;28;20026;-73
2021/06/27 08:04:53;;;;;;;17.40;4.50;;;20.70;99.90;;;;;;5011117;28;20092;-74
2021/06/27 08:07:18;;;;;;;7.85;4.10;;;20.80;99.90;;;;;;5011266;28;20023;-75
2021/06/27 08:09:44;;;;;;;7.15;4.22;;;20.90;99.90;;;;;;5010888;28;20451;-75
2021/06/27 08:12:10;;;;;;;10.10;4.70;;;21.00;99.90;;;;;;5034284;28;20025;-74
2021/06/27 08:14:36;;;;;;;7.07;4.28;;;21.00;99.90;;;;;;5052308;28;20045;-74
2021/06/27 08:17:02;;;;;;;6.15;3.80;;;21.00;99.90;;;;;;5032702;28;20021;-73
2021/06/27 08:19:27;;;;;;;6.53;4.28;;;21.00;99.90;;;;;;5030326;28;20508;-73
2021/06/27 08:21:53;;;;;;;7.22;4.53;;;21.10;99.90;;;;;;5030005;28;20029;-74
2021/06/27 08:24:19;;;;;;;7.47;3.50;;;21.10;99.90;;;;;;5030440;28;20030;-74
2021/06/27 08:26:44;;;;;;;8.13;4.47;;;21.20;99.90;;;;;;5030356;28;20034;-73
2021/06/27 08:29:10;;;;;;;6.90;3.80;;;21.30;99.90;;;;;;5026176;28;20029;-75
2021/06/27 08:31:36;;;;;;;15.73;4.60;;;21.40;99.90;;;;;;5026149;28;20140;-76
2021/06/27 08:34:01;;;;;;;5.45;3.58;;;21.50;99.90;;;;;;5027166;28;20026;-73
2021/06/27 08:36:28;;;;;;;13.95;4.28;;;21.50;99.90;;;;;;5027277;28;20022;-73
2021/06/27 08:38:54;;;;;;;5.22;3.22;;;21.60;99.90;;;;;;5026056;28;20041;-73
2021/06/27 08:41:20;;;;;;;5.90;3.45;;;21.70;99.90;;;;;;5026822;28;20030;-74
2021/06/27 08:43:46;;;;;;;5.82;3.58;;;21.80;99.90;;;;;;5025748;28;20057;-75
2021/06/27 08:46:14;;;;;;;5.68;3.53;;;21.90;99.90;;;;;;5027318;28;20044;-73
2021/06/27 08:48:41;;;;;;;7.20;3.15;;;21.90;99.90;;;;;;5026838;28;20674;-73
2021/06/27 08:51:09;;;;;;;6.43;3.75;;;22.00;99.90;;;;;;5027216;28;20113;-74
2021/06/27 08:53:39;;;;;;;5.15;3.25;;;22.10;99.90;;;;;;5026985;28;20042;-72
2021/06/27 08:56:05;;;;;;;5.78;3.33;;;22.30;99.90;;;;;;5025521;28;20064;-74
2021/06/27 08:58:45;;;;;;;5.15;3.00;;;22.40;99.90;;;;;;5026680;28;20044;-74
2021/06/27 09:01:13;;;;;;;4.85;2.72;;;22.60;99.90;;;;;;5026931;28;20040;-77
2021/06/27 09:03:46;;;;;;;6.10;3.72;;;22.70;99.90;;;;;;5027059;28;20367;-74
2021/06/27 09:06:23;;;;;;;4.35;3.03;;;22.80;99.90;;;;;;5025989;28;20022;-74
2021/06/27 09:09:08;;;;;;;4.60;2.97;;;22.90;99.90;;;;;;5026841;28;20048;-73
2021/06/27 09:11:33;;;;;;;;;;;23.00;99.90;;;;;;5025347;28;20813;-73
2021/06/27 09:13:59;;;;;;;10.88;2.92;;;23.00;99.90;;;;;;5026480;28;19909;-72
2021/06/27 09:16:24;;;;;;;5.70;3.33;;;23.20;99.90;;;;;;5025283;28;20026;-74
2021/06/27 09:18:51;;;;;;;6.95;3.38;;;23.30;99.90;;;;;;5025256;28;20057;-75
2021/06/27 09:21:18;;;;;;;7.15;3.20;;;23.40;99.90;;;;;;5026824;28;20030;-71
2021/06/27 09:23:47;;;;;;;7.43;3.33;;;23.40;99.90;;;;;;5026294;28;20048;-73
2021/06/27 09:26:29;;;;;;;4.78;2.90;;;23.50;99.90;;;;;;5024912;28;20022;-74
2021/06/27 09:28:55;;;;;;;6.72;3.28;;;23.60;99.90;;;;;;5023843;28;20029;-74
2021/06/27 09:31:44;;;;;;;6.78;3.17;;;23.70;99.90;;;;;;5022154;28;20881;-76
2021/06/27 09:34:13;;;;;;;4.57;3.15;;;23.70;99.90;;;;;;5021477;28;20438;-74
2021/06/27 09:36:46;;;;;;;3.47;2.20;;;23.90;99.90;;;;;;5025922;28;20037;-73
2021/06/27 09:39:14;;;;;;;4.45;2.65;;;24.00;99.90;;;;;;5024465;28;20057;-74
2021/06/27 09:41:51;;;;;;;5.03;2.90;;;24.10;99.90;;;;;;5026431;28;20050;-75
2021/06/27 09:44:19;;;;;;;4.43;2.60;;;24.10;99.90;;;;;;5006519;28;20030;-74
2021/06/27 09:46:49;;;;;;;5.15;2.97;;;24.10;99.90;;;;;;5005785;28;20022;-76
2021/06/27 09:49:20;;;;;;;6.15;2.63;;;24.20;99.90;;;;;;5005381;28;20026;-74
2021/06/27 09:51:51;;;;;;;6.22;3.13;;;24.30;99.90;;;;;;5006132;28;20053;-71
2021/06/27 09:54:20;;;;;;;6.13;2.88;;;24.40;99.90;;;;;;5005810;28;20033;-73
2021/06/27 09:56:47;;;;;;;6.75;2.58;;;24.50;99.90;;;;;;5006265;28;20030;-72
2021/06/27 09:59:21;;;;;;;4.53;2.80;;;24.60;99.90;;;;;;5006567;28;20042;-74
2021/06/27 10:01:47;;;;;;;4.82;3.08;;;24.80;99.90;;;;;;5010859;28;20049;-74
2021/06/27 10:04:35;;;;;;;6.88;2.40;;;24.90;99.90;;;;;;5017476;28;20030;-71
2021/06/27 10:07:03;;;;;;;3.83;2.40;;;25.00;99.90;;;;;;5012675;28;20117;-74
2021/06/27 10:09:33;;;;;;;5.72;2.67;;;25.00;99.90;;;;;;5024366;28;20541;-74
2021/06/27 10:12:03;;;;;;;6.32;3.00;;;24.90;99.90;;;;;;5006055;28;20027;-77
2021/06/27 10:14:56;;;;;;;4.53;2.67;;;25.00;99.90;;;;;;5004896;28;20578;-72
2021/06/27 10:17:25;;;;;;;5.97;2.75;;;25.20;99.90;;;;;;5009276;28;20041;-72
2021/06/27 10:19:53;;;;;;;5.47;3.10;;;25.40;99.90;;;;;;5016283;28;20076;-76
2021/06/27 10:22:20;;;;;;;6.38;3.03;;;25.50;99.90;;;;;;5020832;28;20390;-72
2021/06/27 10:24:45;;;;;;;5.63;2.70;;;25.50;99.90;;;;;;5018426;28;20018;-74
2021/06/27 10:27:13;;;;;;;3.20;2.05;;;25.70;99.90;;;;;;5010888;28;20056;-73
2021/06/27 10:29:42;;;;;;;4.97;2.53;;;25.90;99.90;;;;;;5025844;28;20026;-73
2021/06/27 10:32:11;;;;;;;3.47;2.25;;;26.10;99.90;;;;;;5022684;28;20017;-75
2021/06/27 10:34:39;;;;;;;6.82;3.38;;;26.20;99.90;;;;;;5020448;28;20038;-76
2021/06/27 10:37:12;;;;;;;3.47;2.67;;;26.40;99.90;;;;;;5007066;28;20057;-74
2021/06/27 10:39:54;;;;;;;3.25;2.30;;;26.40;99.90;;;;;;5017207;28;20045;-74
2021/06/27 10:42:32;;;;;;;4.40;2.45;;;26.30;99.90;;;;;;5013370;28;20069;-73
2021/06/27 10:44:59;;;;;;;3.60;2.55;;;26.10;99.90;;;;;;5008994;28;20027;-74
2021/06/27 10:47:33;;;;;;;6.10;3.05;;;25.90;99.90;;;;;;5019991;28;20026;-74
2021/06/27 10:50:00;;;;;;;;;;;26.10;99.90;;;;;;5005482;28;20034;-75
2021/06/27 10:52:26;;;;;;;3.65;2.15;;;26.40;99.90;;;;;;5004607;28;19906;-75
2021/06/27 10:55:17;;;;;;;3.65;2.25;;;26.60;99.90;;;;;;5005185;28;20027;-72
2021/06/27 10:57:59;;;;;;;3.92;2.35;;;26.80;99.90;;;;;;5000292;28;20050;-70
2021/06/27 11:00:27;;;;;;;2.60;1.95;;;27.00;99.90;;;;;;5020462;28;20133;-73
2021/06/27 11:02:54;;;;;;;6.40;1.75;;;27.20;99.90;;;;;;5004645;28;20050;-73
2021/06/27 11:05:29;;;;;;;3.08;2.42;;;27.40;99.90;;;;;;5017463;28;20030;-70
2021/06/27 11:07:56;;;;;;;4.32;2.92;;;27.70;99.90;;;;;;5011692;28;20037;-70
2021/06/27 11:10:21;;;;;;;5.00;2.70;;;27.90;99.90;;;;;;5004906;28;20015;-68
2021/06/27 11:12:59;;;;;;;3.00;1.98;;;28.00;99.90;;;;;;5005205;28;20122;-72
2021/06/27 11:15:27;;;;;;;3.33;2.15;;;28.00;99.90;;;;;;5022701;28;20057;-72
2021/06/27 11:17:54;;;;;;;5.13;2.35;;;28.00;99.90;;;;;;5023057;28;20038;-73
2021/06/27 11:20:21;;;;;;;3.40;2.22;;;27.90;99.90;;;;;;5024522;28;20044;-71
2021/06/27 11:22:49;;;;;;;3.65;2.42;;;27.80;99.90;;;;;;5024631;28;20026;-72
2021/06/27 11:25:37;;;;;;;2.35;1.80;;;27.80;99.90;;;;;;5024481;28;20029;-73
2021/06/27 11:28:21;;;;;;;4.32;2.83;;;27.80;99.90;;;;;;5024743;28;20037;-75
2021/06/27 11:30:48;;;;;;;;;;;27.60;99.90;;;;;;5024762;28;20068;-72
2021/06/27 11:33:26;;;;;;;2.40;2.03;;;27.40;99.90;;;;;;5022907;28;19916;-70
2021/06/27 11:35:58;;;;;;;8.05;2.08;;;27.30;99.90;;;;;;5005246;28;20027;-72
2021/06/27 11:38:40;;;;;;;3.80;2.28;;;27.50;99.90;;;;;;5015949;28;20053;-73
2021/06/27 11:41:08;;;;;;;3.55;2.05;;;27.70;99.90;;;;;;5024914;28;20034;-73
2021/06/27 11:43:49;;;;;;;3.63;2.20;;;27.80;99.90;;;;;;5021134;28;20057;-73
2021/06/27 11:46:31;;;;;;;3.28;2.15;;;27.60;99.90;;;;;;5006896;28;20121;-75
2021/06/27 11:49:03;;;;;;;4.18;2.17;;;27.80;99.90;;;;;;5024514;28;20030;-74
2021/06/27 11:51:42;;;;;;;3.15;2.15;;;28.00;99.90;;;;;;5019444;28;20829;-74
2021/06/27 11:54:11;;;;;;;2.28;1.73;;;28.40;99.90;;;;;;5020292;28;20486;-74
2021/06/27 11:56:59;;;;;;;3.60;2.08;;;28.80;99.90;;;;;;5023384;28;20077;-74
2021/06/27 11:59:28;;;;;;;2.75;1.90;;;29.30;99.90;;;;;;5004243;28;20045;-73
2021/06/27 12:02:38;;;;;;;2.60;1.92;;;29.60;99.90;;;;;;5003453;28;20038;-73
2021/06/27 12:05:09;;;;;;;5.28;2.05;;;29.70;99.90;;;;;;5005140;28;20057;-74
2021/06/27 12:07:40;;;;;;;3.38;1.98;;;30.00;99.90;;;;;;5008435;28;20041;-74
2021/06/27 12:10:06;;;;;;;2.92;1.92;;;30.20;99.90;;;;;;5007375;28;20090;-72
2021/06/27 12:12:43;;;;;;;4.18;2.53;;;30.40;99.90;;;;;;5008028;28;20031;-73
2021/06/27 12:15:14;;;;;;;2.45;1.67;;;30.70;99.90;;;;;;5008305;28;20065;-73
2021/06/27 12:17:42;;;;;;;4.80;1.95;;;31.00;99.90;;;;;;5008306;28;20030;-74
2021/06/27 12:20:09;;;;;;;3.20;1.83;;;31.20;99.90;;;;;;5008083;28;20054;-75
2021/06/27 12:22:59;;;;;;;4.05;2.20;;;31.20;99.90;;;;;;5019740;28;20033;-71
2021/06/27 12:25:47;;;;;;;3.65;1.85;;;30.90;99.90;;;;;;5026150;28;20038;-73
2021/06/27 12:28:33;;;;;;;3.60;1.83;;;30.50;99.90;;;;;;5027949;28;20028;-72
2021/06/27 12:31:37;;;;;;;2.65;1.90;;;30.00;99.90;;;;;;5027867;28;20034;-69
2021/06/27 12:34:06;;;;;;;;;;;29.40;99.90;;;;;;5028354;28;20096;-73
2021/06/27 12:36:39;;;;;;;3.28;1.88;;;29.00;99.90;;;;;;5026174;28;20523;-74
2021/06/27 12:39:26;;;;;;;4.25;1.67;;;28.60;99.90;;;;;;5027254;28;20098;-73
2021/06/27 12:42:11;;;;;;;4.18;2.55;;;28.70;99.90;;;;;;5023087;28;20113;-71
2021/06/27 12:44:37;;;;;;;2.20;1.38;;;29.30;99.90;;;;;;5007406;28;20085;-71
2021/06/27 12:47:03;;;;;;;3.90;1.80;;;29.70;99.90;;;;;;5007891;28;20026;-75